Tiempo atmosférico en la estación meteorológica de Sopeira, Huesca (760 m.)



Fecha
DESCASC
Temp. máxima en grados centígrados (hora)
DESCASC
Temp. mínima en grados centígrados (hora)
DESCASC
Temp. media en grados centígrados
DESCASC
Racha de viento máxima en m/sg (hora)
DESCASC
Velocidad máxima media en intervalos de 10 minutos(hora)
DESCASC
Precipitaciones diarias en mm
DESCASC
Precipitaciones de 00:00 a 06:00 en mm
DESCASC
Precipitaciones de 06:00 a 12:00 en mm
DESCASC
Precipitaciones de 12:00 a 18:00 en mm
DESCASC
Precipitaciones de 18:00 a 24:00 en mm
DESCASC
27-10-2020 14.4 (14:10) 2.1 (06:40) 8.2 11.11 (08:50) 8.06 (07:00) 0 0 0 0 0
26-10-2020 13.5 (13:10) 4.5 (23:59) 9 8.61 (07:10) 5.83 (22:30) 2.8 2.8 0 0 0
25-10-2020 15.4 (13:40) 4.7 (08:00) 10 11.11 (03:20) 8.61 (03:30) 8.8 0 0 0 8.8
24-10-2020 17.4 (15:10) 5 (00:00) 11.2 12.22 (09:40) 8.89 (09:40) 0 0 0 0 0
23-10-2020 17.3 (15:40) 8.3 (00:00) 12.8 9.17 (21:10) 7.22 (23:59) 3.2 2.2 1 0 0
22-10-2020 15.7 (15:10) 12.4 (00:00) 14 10.28 (03:20) 7.78 (03:00) 15 1.6 4.6 1.8 7
21-10-2020 22.3 (14:50) 11.4 (00:00) 16.8 13.61 (05:00) 6.39 (09:50) 0.2 0 0.2 0 0
20-10-2020 15.6 (13:50) 7.5 (00:00) 11.6 12.22 (07:10) 9.17 (04:40) 0.4 0 0 0.4 0
19-10-2020 20 (16:10) 4.1 (00:00) 12 14.72 (08:40) 11.11 (08:40) 0 0 0 0 0
18-10-2020 18.8 (16:00) 3.1 (00:00) 10.9 13.33 (09:00) 9.72 (09:00) 0 0 0 0 0
17-10-2020 17.2 (15:40) 1.4 (00:00) 9.3 12.78 (03:40) 9.72 (03:20) 0 0 0 0 0
16-10-2020 16.2 (15:00) 1.6 (00:00) 8.9 11.39 (03:10) 8.89 (03:50) 0 0 0 0 0
15-10-2020 13.3 (16:30) 2.7 (00:00) 8 13.61 (15:00) 6.94 (14:00) 0 0 0 0 0
14-10-2020 15.6 (14:10) 3.8 (00:00) 9.7 10.56 (19:50) 6.39 (09:10) 0.2 0 0 0.2 0
13-10-2020 19.6 (15:30) 4.9 (00:00) 12.3 11.94 (04:00) 8.61 (06:30) 0 0 0 0 0
12-10-2020 16.5 (16:30) 4.4 (00:00) 10.5 13.89 (00:20) 7.5 (23:20) 0 0 0 0 0
11-10-2020 16.3 (15:00) 9 (00:00) 12.6 19.72 (21:30) 9.17 (23:40) 0 0 0 0 0
10-10-2020 22.1 (13:30) 12.1 (00:00) 17.1 12.5 (23:10) 6.94 (05:50) 2.2 0 0 1.2 1
09-10-2020 24.7 (15:30) 11.4 (00:00) 18.1 12.22 (08:50) 8.89 (08:50) 0 0 0 0 0
08-10-2020 23.4 (14:40) 9.9 (00:00) 16.6 11.67 (05:50) 9.17 (05:40) 0 0 0 0 0
07-10-2020 23.9 (15:20) 9.9 (00:00) 16.9 11.11 (23:59) 8.33 (23:40) 0 0 0 0 0
06-10-2020 22.1 (16:10) 6.1 (00:00) 14.1 11.11 (08:50) 8.89 (09:00) 0 0 0 0 0
05-10-2020 18.2 (16:00) 4.2 (00:00) 11.2 10 (08:10) 7.5 (08:20) 0 0 0 0 0
04-10-2020 15.1 (16:20) 7.2 (00:00) 11.2 8.06 (05:10) 5 (05:10) 0 0 0 0 0
03-10-2020 12 (15:40) 5.7 (00:00) 8.8 9.17 (14:40) 5.83 (14:50) 0.2 0.2 0 0 0
02-10-2020 13.4 (00:00) 6.1 (00:00) 9.7 9.72 (13:40) 5.28 (04:00) 24.8 1 17 6.8 0
01-10-2020 23.2 (13:40) 9 (00:00) 16.1 13.33 (05:00) 9.44 (04:00) 0 0 0 0 0
30-09-2020 25.3 (15:10) 8.2 (00:00) 16.7 13.89 (08:30) 9.44 (08:10) 0 0 0 0 0

Gráficas

Temp. máximas Temp. mínimas Temp. medias Precipitaciones Rachas de viento máximas Velocidades máximas media en intervalos de 10 minutos

Datos horarios

Fecha y hora oficial Temperatura (ºC) Velocidad del viento (km/h) Dirección del viento Racha (km/h) Dirección de racha Precipitación (mm) Presión (hPa) Tendencia (hPa) Humedad (%)
2020-10-29 23:00:00 9.5 30 Noroeste 37 Noroeste 0 -- -- 86
2020-10-29 22:00:00 10.4 16 Noroeste 33 Noroeste 0 -- -- 83
2020-10-29 21:00:00 11.3 19 Noroeste 30 Noroeste 0 -- -- 80
2020-10-29 20:00:00 12.1 20 Noroeste 32 Noroeste 0 -- -- 78
2020-10-29 19:00:00 13.6 0 Calma 6 Este 0 -- -- 68
2020-10-29 18:00:00 15.5 0 Calma 13 Sur 0 -- -- 62
2020-10-29 17:00:00 16.9 12 Sur 20 Sur 0 -- -- 57
2020-10-29 16:00:00 18.6 8 Sur 14 Sudoeste 0 -- -- 52
2020-10-29 15:00:00 18.4 6 Sudeste 11 Este 0 -- -- 56
2020-10-29 14:00:00 18 8 Sur 15 Sur 0 -- -- 56
2020-10-29 13:00:00 17.1 5 Sudeste 11 Sudeste 0 -- -- 61
2020-10-29 12:00:00 15.9 6 Sudeste 12 Noroeste 0 -- -- 64
2020-10-29 11:00:00 10.7 10 Noroeste 32 Noroeste 0 -- -- 76
2020-10-29 10:00:00 7.8 21 Noroeste 40 Noroeste 0 -- -- 86
2020-10-29 09:00:00 6.3 32 Noroeste 40 Noroeste 0 -- -- 90
2020-10-29 08:00:00 6.1 32 Noroeste 42 Noroeste 0 -- -- 92
2020-10-29 07:00:00 6.6 25 Noroeste 43 Noroeste 0 -- -- 91
2020-10-29 06:00:00 6.8 28 Noroeste 39 Noroeste 0 -- -- 91
2020-10-29 05:00:00 7.2 26 Noroeste 41 Noroeste 0 -- -- 90
2020-10-29 04:00:00 7.7 27 Noroeste 39 Noroeste 0 -- -- 90
2020-10-29 03:00:00 8 23 Noroeste 39 Noroeste 0 -- -- 88
2020-10-29 02:00:00 8.4 29 Noroeste 37 Noroeste 0 -- -- 87
2020-10-29 01:00:00 9 24 Noroeste 36 Noroeste 0 -- -- 87
2020-10-29 00:00:00 9.4 23 Noroeste 33 Noroeste 0 -- -- 87
2020-10-28 23:00:00 10.1 14 Noroeste 28 Noroeste 0 -- -- 85
2020-10-28 22:00:00 10.7 18 Noroeste 30 Noroeste 0 -- -- 84
2020-10-28 21:00:00 11.6 14 Noroeste 22 Noroeste 0 -- -- 82
2020-10-28 20:00:00 12.7 0 Calma 6 Noroeste 0 -- -- 76
2020-10-28 19:00:00 14.3 4 Sudoeste 13 Sur 0 -- -- 69
2020-10-28 18:00:00 15.2 2 Sur 21 Sur 0 -- -- 66
2020-10-28 17:00:00 16.5 12 Sur 18 Sur 0 -- -- 61
2020-10-28 16:00:00 17.4 3 Sur 18 Sudoeste 0 -- -- 57
2020-10-28 15:00:00 18.1 8 Sur 17 Sur 0 -- -- 54
2020-10-28 14:00:00 17.8 9 Sur 14 Sudoeste 0 -- -- 54
2020-10-28 13:00:00 16.6 7 Sur 13 Sudoeste 0 -- -- 57
2020-10-28 12:00:00 14.9 6 Sur 15 Noroeste 0 -- -- 61
2020-10-28 11:00:00 10.1 12 Noroeste 26 Noroeste 0 -- -- 73
2020-10-28 10:00:00 7.2 14 Noroeste 35 Noroeste 0 -- -- 83
2020-10-28 09:00:00 5.9 21 Noroeste 37 Noroeste 0 -- -- 87
2020-10-28 08:00:00 5.4 22 Noroeste 39 Noroeste 0 -- -- 88
2020-10-28 07:00:00 5.3 21 Noroeste 40 Noroeste 0 -- -- 89
2020-10-28 06:00:00 5.3 22 Noroeste 38 Noroeste 0 -- -- 88
2020-10-28 05:00:00 5.5 24 Noroeste 45 Noroeste 0 -- -- 88
2020-10-28 04:00:00 5.7 26 Noroeste 41 Noroeste 0 -- -- 87
2020-10-28 03:00:00 6.1 27 Noroeste 43 Noroeste 0 -- -- 86
2020-10-28 02:00:00 6.2 26 Noroeste 40 Noroeste 0 -- -- 86
2020-10-28 01:00:00 6.6 27 Noroeste 37 Noroeste 0 -- -- 85
2020-10-28 00:00:00 7.3 22 Noroeste 38 Noroeste 0 -- -- 83
2020-10-27 23:00:00 7.7 21 Noroeste 32 Noroeste 0 -- -- 84
2020-10-27 22:00:00 8.2 19 Noroeste 27 Noroeste 0 -- -- 83
2020-10-27 21:00:00 8.7 12 Noroeste 24 Noroeste 0 -- -- 81
2020-10-27 20:00:00 9.2 12 Noroeste 17 Noroeste 0 -- -- 79
2020-10-27 19:00:00 10.1 9 Noroeste 15 Noroeste 0 -- -- 73
2020-10-27 18:00:00 11.6 2 Este 12 Sur 0 -- -- 64
2020-10-27 17:00:00 12.8 8 Sur 16 Sur 0 -- -- 59
2020-10-27 16:00:00 14.2 11 Sur 18 Sur 0 -- -- 51
2020-10-27 15:00:00 14.1 10 Sur 21 Sudoeste 0 -- -- 52
2020-10-27 14:00:00 14.2 10 Sur 17 Sur 0 -- -- 54
2020-10-27 13:00:00 13 8 Sur 15 Sur 0 -- -- 54
2020-10-27 12:00:00 9.5 3 Nordeste 9 Noroeste 0 -- -- 69
2020-10-27 11:00:00 6.3 12 Noroeste 26 Noroeste 0 -- -- 73
2020-10-27 10:00:00 4.4 16 Noroeste 30 Noroeste 0 -- -- 80
2020-10-27 09:00:00 2.8 23 Noroeste 40 Noroeste 0 -- -- 85
2020-10-27 08:00:00 2.1 24 Noroeste 36 Noroeste 0 -- -- 87
2020-10-27 07:00:00 2.2 29 Noroeste 38 Noroeste 0 -- -- 87
2020-10-27 06:00:00 2.3 22 Noroeste 33 Noroeste 0 -- -- 87
2020-10-27 05:00:00 2.5 18 Noroeste 34 Noroeste 0 -- -- 88
2020-10-27 04:00:00 2.7 19 Noroeste 31 Noroeste 0 -- -- 87
2020-10-27 03:00:00 2.9 22 Noroeste 35 Noroeste 0 -- -- 87
2020-10-27 02:00:00 3.4 17 Noroeste 28 Noroeste 0 -- -- 87
2020-10-27 01:00:00 3.8 18 Noroeste 27 Noroeste 0 -- -- 85
2020-10-27 00:00:00 4.5 14 Noroeste 29 Noroeste 0 -- -- 82
2020-10-26 23:00:00 5.4 10 Noroeste 29 Noroeste 0 -- -- 79
2020-10-26 22:00:00 6.1 11 Noroeste 27 Noroeste 0 -- -- 78
2020-10-26 21:00:00 7.1 14 Noroeste 30 Noroeste 0 -- -- 73
2020-10-26 20:00:00 8.3 16 Noroeste 27 Noroeste 0 -- -- 65
2020-10-26 19:00:00 9.5 15 Noroeste 22 Noroeste 0 -- -- 62
2020-10-26 18:00:00 10.6 9 Noroeste 15 Noroeste 0 -- -- 61
2020-10-26 17:00:00 10.9 9 Noroeste 16 Noroeste 0 -- -- 61
2020-10-26 16:00:00 11 4 Norte 8 Norte 0 -- -- 63
2020-10-26 15:00:00 11.5 0 Calma 10 Sur 0 -- -- 73
2020-10-26 14:00:00 12 3 Sur 11 Sur 0 -- -- 66
2020-10-26 13:00:00 13.3 3 Este 13 Nordeste 0 -- -- 63
2020-10-26 12:00:00 11.6 8 Sur 14 Sur 0 -- -- 71
2020-10-26 11:00:00 10.8 5 Sudeste 10 Sudoeste 0 -- -- 82
2020-10-26 10:00:00 9 4 Sudeste 9 Este 0 -- -- 89
2020-10-26 09:00:00 7 5 Sudoeste 20 Noroeste 0 -- -- 87
2020-10-26 08:00:00 7.6 12 Noroeste 31 Noroeste 0 -- -- 78
2020-10-26 07:00:00 7.8 4 Sudoeste 12 Sudoeste 0 -- -- 94
2020-10-26 06:00:00 8.2 6 Sur 13 Sudoeste 0 -- -- 94
2020-10-26 05:00:00 8.6 7 Sudoeste 16 Sudoeste 0 -- -- 93
2020-10-26 04:00:00 8.6 8 Sudoeste 15 Sudoeste 0 -- -- 93
2020-10-26 03:00:00 8.7 2 Sudeste 8 Este 0 -- -- 91
2020-10-26 02:00:00 9.1 3 Noroeste 8 Noroeste 0.6 -- -- 91
2020-10-26 01:00:00 9.5 5 Sudoeste 17 Noroeste 2.2 -- -- 89
2020-10-26 00:00:00 10.1 0 Calma 17 Sur 7.4 -- -- 93
2020-10-25 23:00:00 10.6 8 Sudoeste 19 Sudoeste 1.4 -- -- 90
2020-10-25 22:00:00 10.9 0 Calma 16 Noroeste 0 -- -- 88
2020-10-25 21:00:00 11.5 10 Noroeste 15 Noroeste 0 -- -- 84
2020-10-25 20:00:00 12.2 2 Sudeste 4 Este 0 -- -- 77
2020-10-25 19:00:00 12.6 0 Calma 5 Sur 0 -- -- 73
2020-10-25 18:00:00 13 0 Calma 13 Sur 0 -- -- 70
2020-10-25 17:00:00 13.8 6 Sur 14 Sudoeste 0 -- -- 65
2020-10-25 16:00:00 14.4 6 Sur 15 Sudoeste 0 -- -- 63
2020-10-25 15:00:00 15.2 6 Sudeste 15 Sur 0 -- -- 61
2020-10-25 14:00:00 15.1 12 Nordeste 20 Nordeste 0 -- -- 62
2020-10-25 13:00:00 14.7 6 Sur 18 Sur 0 -- -- 65
2020-10-25 12:00:00 13.3 8 Sur 13 Sur 0 -- -- 71
2020-10-25 11:00:00 10.7 6 Sur 24 Noroeste 0 -- -- 76
2020-10-25 10:00:00 6.3 14 Noroeste 33 Noroeste 0 -- -- 90
2020-10-25 09:00:00 4.9 22 Noroeste 32 Noroeste 0 -- -- 93
2020-10-25 08:00:00 4.7 22 Noroeste 37 Noroeste 0 -- -- 93
2020-10-25 07:00:00 4.9 23 Noroeste 37 Noroeste 0 -- -- 92
2020-10-25 06:00:00 5.2 15 Noroeste 38 Noroeste 0 -- -- 92
2020-10-25 05:00:00 5.6 22 Noroeste 37 Noroeste 0 -- -- 90
2020-10-25 04:00:00 6 23 Noroeste 40 Noroeste 0 -- -- 90
2020-10-25 03:00:00 6.5 23 Noroeste 39 Noroeste 0 -- -- 89
2020-10-25 02:00:00 6.8 24 Noroeste 37 Noroeste 0 -- -- 88
2020-10-25 01:00:00 7.7 26 Noroeste 36 Noroeste 0 -- -- 87
2020-10-25 00:00:00 8.2 26 Noroeste 35 Noroeste 0 -- -- 86
2020-10-24 23:00:00 8.9 24 Noroeste 33 Noroeste 0 -- -- 83
2020-10-24 22:00:00 9.8 14 Noroeste 26 Noroeste 0 -- -- 80
2020-10-24 21:00:00 10.7 12 Noroeste 15 Noroeste 0 -- -- 75
2020-10-24 20:00:00 12.2 3 Noroeste 6 Noroeste 0 -- -- 65
2020-10-24 19:00:00 13.9 3 Sur 16 Sur 0 -- -- 59
2020-10-24 18:00:00 15.2 10 Sur 22 Sur 0 -- -- 56
2020-10-24 17:00:00 16.6 9 Sur 20 Sur 0 -- -- 54
2020-10-24 16:00:00 17.3 8 Sudeste 16 Sur 0 -- -- 51
2020-10-24 15:00:00 17.1 8 Sur 14 Sur 0 -- -- 53
2020-10-24 14:00:00 16.4 5 Sudeste 11 Sur 0 -- -- 59
2020-10-24 13:00:00 14.7 5 Sudeste 12 Noroeste 0 -- -- 61
2020-10-24 12:00:00 9.5 10 Noroeste 25 Noroeste 0 -- -- 77
2020-10-24 11:00:00 6.6 18 Noroeste 37 Noroeste 0 -- -- 87
2020-10-24 10:00:00 5.2 28 Noroeste 44 Noroeste 0 -- -- 90
2020-10-24 09:00:00 5.1 26 Noroeste 41 Noroeste 0 -- -- 91
2020-10-24 08:00:00 5.4 26 Noroeste 42 Noroeste 0 -- -- 90
2020-10-24 07:00:00 5.5 28 Noroeste 40 Noroeste 0 -- -- 90
2020-10-24 06:00:00 5.9 24 Noroeste 39 Noroeste 0 -- -- 91
2020-10-24 05:00:00 6.3 27 Noroeste 40 Noroeste 0 -- -- 90
2020-10-24 04:00:00 6.6 24 Noroeste 40 Noroeste 0 -- -- 91
2020-10-24 03:00:00 7.4 29 Noroeste 37 Noroeste 0 -- -- 89
2020-10-24 02:00:00 7.5 25 Noroeste 36 Noroeste 0 -- -- 89
2020-10-24 01:00:00 7.9 25 Noroeste 32 Noroeste 0 -- -- 89
2020-10-24 00:00:00 8.3 26 Noroeste 32 Noroeste 0 -- -- 89
2020-10-23 23:00:00 8.9 23 Noroeste 31 Noroeste 0 -- -- 87
2020-10-23 22:00:00 9.7 25 Noroeste 33 Noroeste 0 -- -- 84
2020-10-23 21:00:00 10.4 19 Noroeste 28 Noroeste 0 -- -- 82
2020-10-23 20:00:00 11.5 16 Noroeste 26 Noroeste 0 -- -- 77
2020-10-23 19:00:00 13.1 11 Noroeste 22 Noroeste 0 -- -- 66
2020-10-23 18:00:00 14.3 9 Noroeste 20 Noroeste 0 -- -- 64
2020-10-23 17:00:00 15.3 6 Sudoeste 30 Sudeste 0 -- -- 61
2020-10-23 16:00:00 17.3 12 Sur 27 Sur 0 -- -- 54
2020-10-23 15:00:00 17.1 9 Sur 19 Sur 0 -- -- 60
2020-10-23 14:00:00 15.5 5 Sudeste 13 Este 0 -- -- 75
2020-10-23 13:00:00 14.9 6 Este 17 Este 0 -- -- 85
2020-10-23 12:00:00 12.5 10 Este 17 Sudeste 1 -- -- 96
2020-10-23 11:00:00 12.7 4 Sur 8 Sur 0 -- -- 96
2020-10-23 10:00:00 11.9 0 Calma 8 Oeste 0 -- -- 97
2020-10-23 09:00:00 11.6 0 Calma 5 Este 0 -- -- 96
2020-10-23 08:00:00 11.9 0 Calma 6 Noroeste 0 -- -- 96
2020-10-23 07:00:00 12.1 0 Calma 6 Noroeste 0 -- -- 96
2020-10-23 06:00:00 12.3 0 Calma 8 Sur 0.2 -- -- 95
2020-10-23 05:00:00 12.4 3 Sudeste 7 Sudoeste 0.6 -- -- 95
2020-10-23 04:00:00 12.4 4 Noroeste 7 Noroeste 0 -- -- 95
2020-10-23 03:00:00 12.3 4 Sur 9 Sur 0.4 -- -- 95
2020-10-23 02:00:00 12.4 0 Calma 10 Noroeste 0.4 -- -- 94
2020-10-23 01:00:00 12.4 2 Norte 16 Noroeste 0.6 -- -- 93
2020-10-23 00:00:00 12.4 12 Noroeste 22 Noroeste 3 -- -- 93
2020-10-22 23:00:00 12.6 10 Noroeste 20 Noroeste 1.8 -- -- 92
2020-10-22 22:00:00 12.8 10 Noroeste 18 Noroeste 0 -- -- 90
2020-10-22 21:00:00 12.9 12 Noroeste 22 Noroeste 0.2 -- -- 90
2020-10-22 20:00:00 12.9 9 Noroeste 19 Noroeste 1 -- -- 90
2020-10-22 19:00:00 13.3 2 Oeste 6 Sudeste 1 -- -- 89
2020-10-22 18:00:00 14 0 Calma 13 Noroeste 1.8 -- -- 87
2020-10-22 17:00:00 15.2 8 Noroeste 23 Noroeste 0 -- -- 83
2020-10-22 16:00:00 15.3 16 Noroeste 25 Noroeste 0 -- -- 79
2020-10-22 15:00:00 15.6 15 Norte 26 Noroeste 0 -- -- 77
2020-10-22 14:00:00 14.7 20 Norte 31 Noroeste 0 -- -- 81
2020-10-22 13:00:00 14.1 19 Norte 33 Noroeste 0 -- -- 85
2020-10-22 12:00:00 13.5 18 Norte 29 Noroeste 1.2 -- -- 89
2020-10-22 11:00:00 13.4 18 Noroeste 27 Noroeste 0.4 -- -- 89
2020-10-22 10:00:00 13 19 Noroeste 26 Noroeste 1.2 -- -- 92
2020-10-22 09:00:00 13.2 14 Noroeste 31 Noroeste 1.2 -- -- 90
2020-10-22 08:00:00 13.3 20 Noroeste 31 Noroeste 0.4 -- -- 89
2020-10-22 07:00:00 13.5 18 Noroeste 26 Noroeste 0.2 -- -- 89
2020-10-22 06:00:00 13.7 21 Noroeste 31 Noroeste 0.4 -- -- 87
2020-10-22 05:00:00 13.5 5 Sur 24 Noroeste 1.2 -- -- 87
2020-10-22 04:00:00 14 21 Noroeste 37 Noroeste 0 -- -- 79
2020-10-22 03:00:00 14.1 28 Noroeste 37 Noroeste 0 -- -- 79
2020-10-22 02:00:00 14.2 14 Noroeste 24 Noroeste 0 -- -- 78
2020-10-22 01:00:00 14.3 15 Noroeste 22 Noroeste 0 -- -- 78
2020-10-22 00:00:00 14.6 15 Noroeste 27 Noroeste 0 -- -- 75
2020-10-21 23:00:00 15.2 15 Noroeste 24 Noroeste 0 -- -- 72
2020-10-21 22:00:00 15.9 12 Noroeste 24 Noroeste 0 -- -- 69
2020-10-21 21:00:00 17 6 Oeste 24 Sur 0 -- -- 65
2020-10-21 20:00:00 18 9 Noroeste 19 Noroeste 0 -- -- 61
2020-10-21 19:00:00 19.3 0 Calma 12 Oeste 0 -- -- 57
2020-10-21 18:00:00 19.9 9 Sudoeste 34 Sur 0 -- -- 56
2020-10-21 17:00:00 20.5 16 Sur 26 Sur 0 -- -- 52
2020-10-21 16:00:00 21.3 14 Sur 26 Sudoeste 0 -- -- 48
2020-10-21 15:00:00 21.8 11 Sur 25 Sur 0 -- -- 49
2020-10-21 14:00:00 21 9 Sur 18 Sur 0 -- -- 53
2020-10-21 13:00:00 17 10 Noroeste 20 Noroeste 0 -- -- 73
2020-10-21 12:00:00 15.8 15 Noroeste 26 Noroeste 0 -- -- 77
2020-10-21 11:00:00 13.6 19 Noroeste 28 Noroeste 0 -- -- 85
2020-10-21 10:00:00 13.3 22 Noroeste 30 Noroeste 0 -- -- 86
2020-10-21 09:00:00 13.3 19 Noroeste 29 Noroeste 0.2 -- -- 84
2020-10-21 08:00:00 14.3 9 Norte 25 Noroeste 0 -- -- 76
2020-10-21 07:00:00 15.8 7 Sudoeste 29 Sur 0 -- -- 67
2020-10-21 06:00:00 16.1 15 Sudoeste 33 Sudoeste 0 -- -- 62
2020-10-21 05:00:00 16 16 Sudoeste 49 Sudoeste 0 -- -- 59
2020-10-21 04:00:00 13.6 14 Noroeste 21 Noroeste 0 -- -- 76
2020-10-21 03:00:00 15.6 11 Sudoeste 31 Sudoeste 0 -- -- 66
2020-10-21 02:00:00 14.8 12 Sudoeste 25 Sudoeste 0 -- -- 69
2020-10-21 01:00:00 12 9 Noroeste 18 Noroeste 0 -- -- 82
2020-10-21 00:00:00 11.4 12 Noroeste 24 Noroeste 0 -- -- 85
2020-10-20 23:00:00 11.5 17 Noroeste 27 Noroeste 0 -- -- 85
2020-10-20 22:00:00 11.7 18 Noroeste 30 Noroeste 0 -- -- 83
2020-10-20 21:00:00 12.3 19 Noroeste 26 Noroeste 0 -- -- 83
2020-10-20 20:00:00 13.2 14 Noroeste 25 Noroeste 0 -- -- 80
2020-10-20 19:00:00 13.6 16 Noroeste 22 Noroeste 0 -- -- 80
2020-10-20 18:00:00 13.7 10 Noroeste 18 Noroeste 0 -- -- 84
2020-10-20 17:00:00 13.8 11 Noroeste 19 Noroeste 0 -- -- 83
2020-10-20 16:00:00 14.5 6 Noroeste 15 Sudoeste 0.4 -- -- 80
2020-10-20 15:00:00 15.4 11 Oeste 29 Sudoeste 0 -- -- 70
2020-10-20 14:00:00 15.6 18 Sur 31 Sur 0 -- -- 68
2020-10-20 13:00:00 14.1 6 Sur 18 Noroeste 0 -- -- 71
2020-10-20 12:00:00 12.3 11 Noroeste 27 Noroeste 0 -- -- 72
2020-10-20 11:00:00 11.1 12 Noroeste 32 Noroeste 0 -- -- 74
2020-10-20 10:00:00 10.2 17 Noroeste 34 Noroeste 0 -- -- 76
2020-10-20 09:00:00 9.3 22 Noroeste 39 Noroeste 0 -- -- 78
2020-10-20 08:00:00 8.9 23 Noroeste 44 Noroeste 0 -- -- 79
2020-10-20 07:00:00 8.7 19 Noroeste 40 Noroeste 0 -- -- 78
2020-10-20 06:00:00 7.7 31 Noroeste 42 Noroeste 0 -- -- 82
2020-10-20 05:00:00 7.9 30 Noroeste 40 Noroeste 0 -- -- 80
2020-10-20 04:00:00 7.8 26 Noroeste 40 Noroeste 0 -- -- 81
2020-10-20 03:00:00 7.9 24 Noroeste 36 Noroeste 0 -- -- 81
2020-10-20 02:00:00 8.2 21 Noroeste 31 Noroeste 0 -- -- 80
2020-10-20 01:00:00 9.1 19 Noroeste 36 Noroeste 0 -- -- 75
2020-10-20 00:00:00 9.5 26 Noroeste 35 Noroeste 0 -- -- 73
2020-10-19 23:00:00 10.3 17 Noroeste 32 Noroeste 0 -- -- 70
2020-10-19 22:00:00 11 20 Noroeste 29 Noroeste 0 -- -- 68
2020-10-19 21:00:00 12.6 18 Noroeste 25 Noroeste 0 -- -- 60
2020-10-19 20:00:00 14.1 16 Noroeste 23 Noroeste 0 -- -- 56
2020-10-19 19:00:00 15.6 5 Este 12 Sur 0 -- -- 52
2020-10-19 18:00:00 17.2 8 Sur 16 Sur 0 -- -- 45
2020-10-19 17:00:00 18.9 12 Sur 17 Sur 0 -- -- 37
2020-10-19 16:00:00 19.7 11 Sur 18 Sur 0 -- -- 36
2020-10-19 15:00:00 19.4 11 Sur 17 Sur 0 -- -- 38
2020-10-19 14:00:00 19.1 6 Sudeste 10 Sudeste 0 -- -- 41
2020-10-19 13:00:00 15.7 4 Este 15 Noroeste 0 -- -- 52
2020-10-19 12:00:00 10.4 12 Noroeste 31 Noroeste 0 -- -- 63
2020-10-19 11:00:00 7.3 22 Noroeste 41 Noroeste 0 -- -- 73
2020-10-19 10:00:00 5 30 Noroeste 47 Noroeste 0 -- -- 82
2020-10-19 09:00:00 4.4 34 Noroeste 53 Noroeste 0 -- -- 83
2020-10-19 08:00:00 4.1 37 Noroeste 50 Noroeste 0 -- -- 85
2020-10-19 07:00:00 4.5 39 Noroeste 49 Noroeste 0 -- -- 84
2020-10-19 06:00:00 4.9 33 Noroeste 47 Noroeste 0 -- -- 83
2020-10-19 05:00:00 5.2 32 Noroeste 47 Noroeste 0 -- -- 83
2020-10-19 04:00:00 5.7 35 Noroeste 48 Noroeste 0 -- -- 81
2020-10-19 03:00:00 6 30 Noroeste 41 Noroeste 0 -- -- 81
2020-10-19 02:00:00 6.7 31 Noroeste 39 Noroeste 0 -- -- 79
2020-10-19 01:00:00 7.3 27 Noroeste 40 Noroeste 0 -- -- 77
2020-10-19 00:00:00 8.4 29 Noroeste 40 Noroeste 0 -- -- 72
2020-10-18 23:00:00 9.3 25 Noroeste 36 Noroeste 0 -- -- 69
2020-10-18 22:00:00 10.1 19 Noroeste 26 Noroeste 0 -- -- 68
2020-10-18 21:00:00 11.5 14 Noroeste 21 Noroeste 0 -- -- 63
2020-10-18 20:00:00 13.6 7 Noroeste 12 Oeste 0 -- -- 54
2020-10-18 19:00:00 15.7 3 Sudeste 16 Sur 0 -- -- 46
2020-10-18 18:00:00 17.6 10 Sur 16 Sur 0 -- -- 39
2020-10-18 17:00:00 18.6 4 Sudeste 20 Sudoeste 0 -- -- 38
2020-10-18 16:00:00 18.8 6 Sudeste 14 Sur 0 -- -- 40
2020-10-18 15:00:00 17.9 9 Sur 15 Sur 0 -- -- 42
2020-10-18 14:00:00 16.1 6 Sudeste 10 Sudeste 0 -- -- 48
2020-10-18 13:00:00 13.4 6 Sudeste 11 Sudeste 0 -- -- 54
2020-10-18 12:00:00 10.1 11 Noroeste 27 Noroeste 0 -- -- 59
2020-10-18 11:00:00 6.8 22 Noroeste 42 Noroeste 0 -- -- 72
2020-10-18 10:00:00 4.1 26 Noroeste 45 Noroeste 0 -- -- 81
2020-10-18 09:00:00 3.1 35 Noroeste 48 Noroeste 0 -- -- 85
2020-10-18 08:00:00 3.2 31 Noroeste 45 Noroeste 0 -- -- 86
2020-10-18 07:00:00 3.5 27 Noroeste 43 Noroeste 0 -- -- 85
2020-10-18 06:00:00 3.8 33 Noroeste 45 Noroeste 0 -- -- 85
2020-10-18 05:00:00 4.3 30 Noroeste 43 Noroeste 0 -- -- 84
2020-10-18 04:00:00 4.9 32 Noroeste 44 Noroeste 0 -- -- 81
2020-10-18 03:00:00 5.2 31 Noroeste 42 Noroeste 0 -- -- 80
2020-10-18 02:00:00 5.8 32 Noroeste 43 Noroeste 0 -- -- 79
2020-10-18 01:00:00 6.7 33 Noroeste 41 Noroeste 0 -- -- 75
2020-10-18 00:00:00 7.5 27 Noroeste 44 Noroeste 0 -- -- 73
2020-10-17 23:00:00 8.5 21 Noroeste 30 Noroeste 0 -- -- 69
2020-10-17 22:00:00 9.6 18 Noroeste 28 Noroeste 0 -- -- 67
2020-10-17 21:00:00 10.8 8 Noroeste 12 Noroeste 0 -- -- 61
2020-10-17 20:00:00 12.1 4 Sur 18 Sudeste 0 -- -- 52
2020-10-17 19:00:00 13.5 10 Sur 25 Sudoeste 0 -- -- 49
2020-10-17 18:00:00 15.4 9 Sur 17 Sur 0 -- -- 43
2020-10-17 17:00:00 16.6 6 Sudeste 18 Sur 0 -- -- 39
2020-10-17 16:00:00 17.1 8 Sur 15 Sur 0 -- -- 35
2020-10-17 15:00:00 16.5 6 Sudeste 18 Sur 0 -- -- 37
2020-10-17 14:00:00 15.8 6 Sudeste 13 Sudeste 0 -- -- 39
2020-10-17 13:00:00 14.3 6 Sudeste 10 Sudeste 0 -- -- 41
2020-10-17 12:00:00 8.6 7 Noroeste 28 Noroeste 0 -- -- 57
2020-10-17 11:00:00 5.1 21 Noroeste 36 Noroeste 0 -- -- 68
2020-10-17 10:00:00 2.5 26 Noroeste 42 Noroeste 0 -- -- 79
2020-10-17 09:00:00 1.7 25 Noroeste 45 Noroeste 0 -- -- 82
2020-10-17 08:00:00 1.6 28 Noroeste 41 Noroeste 0 -- -- 83
2020-10-17 07:00:00 1.8 25 Noroeste 46 Noroeste 0 -- -- 82
2020-10-17 06:00:00 2.2 26 Noroeste 45 Noroeste 0 -- -- 79
2020-10-17 05:00:00 2.5 31 Noroeste 46 Noroeste 0 -- -- 78
2020-10-17 04:00:00 2.9 32 Noroeste 46 Noroeste 0 -- -- 76
2020-10-17 03:00:00 3.3 33 Noroeste 43 Noroeste 0 -- -- 75
2020-10-17 02:00:00 3.9 30 Noroeste 41 Noroeste 0 -- -- 72
2020-10-17 01:00:00 4.7 28 Noroeste 37 Noroeste 0 -- -- 70
2020-10-17 00:00:00 5.4 26 Noroeste 35 Noroeste 0 -- -- 67
2020-10-16 23:00:00 6.4 23 Noroeste 32 Noroeste 0 -- -- 63
2020-10-16 22:00:00 7.6 16 Noroeste 21 Noroeste 0 -- -- 59
2020-10-16 21:00:00 9.5 2 Sudoeste 15 Sur 0 -- -- 44
2020-10-16 20:00:00 10.7 5 Sudeste 19 Sudeste 0 -- -- 41
2020-10-16 19:00:00 12.2 9 Sur 16 Sur 0 -- -- 40
2020-10-16 18:00:00 14.4 4 Sudeste 20 Sur 0 -- -- 34
2020-10-16 17:00:00 15.4 10 Sur 21 Sur 0 -- -- 32
2020-10-16 16:00:00 15.3 8 Sudoeste 27 Sur 0 -- -- 32
2020-10-16 15:00:00 16.2 12 Sur 20 Sur 0 -- -- 30
2020-10-16 14:00:00 15.8 8 Sudeste 13 Sur 0 -- -- 30
2020-10-16 13:00:00 14.8 7 Sudeste 13 Este 0 -- -- 33
2020-10-16 12:00:00 12 5 Sudeste 10 Sudeste 0 -- -- 36
2020-10-16 11:00:00 6.7 6 Noroeste 17 Noroeste 0 -- -- 55
2020-10-16 10:00:00 1.8 2 Nordeste 24 Noroeste 0 -- -- 76
2020-10-16 09:00:00 1.6 13 Noroeste 37 Noroeste 0 -- -- 74
2020-10-16 08:00:00 1.7 18 Noroeste 33 Noroeste 0 -- -- 72
2020-10-16 07:00:00 1.8 22 Noroeste 35 Noroeste 0 -- -- 71
2020-10-16 06:00:00 2.1 24 Noroeste 38 Noroeste 0 -- -- 68
2020-10-16 05:00:00 2.6 23 Noroeste 39 Noroeste 0 -- -- 66
2020-10-16 04:00:00 3.3 31 Noroeste 41 Noroeste 0 -- -- 62
2020-10-16 03:00:00 4.2 28 Noroeste 36 Noroeste 0 -- -- 58
2020-10-16 02:00:00 5.2 22 Noroeste 37 Noroeste 0 -- -- 53
2020-10-16 01:00:00 6.5 22 Noroeste 33 Noroeste 0 -- -- 49
2020-10-16 00:00:00 8 12 Noroeste 33 Noroeste 0 -- -- 41
2020-10-15 23:00:00 8.5 10 Norte 41 Noroeste 0 -- -- 38
2020-10-15 22:00:00 8.9 7 Nordeste 36 Noroeste 0 -- -- 38
2020-10-15 21:00:00 9.1 12 Norte 36 Noroeste 0 -- -- 40
2020-10-15 20:00:00 9.8 14 Oeste 42 Noroeste 0 -- -- 38
2020-10-15 19:00:00 10.8 18 Noroeste 48 Oeste 0 -- -- 37
2020-10-15 18:00:00 11.9 13 Noroeste 48 Noroeste 0 -- -- 35
2020-10-15 17:00:00 13.1 14 Oeste 33 Oeste 0 -- -- 30
2020-10-15 16:00:00 13.1 16 Oeste 42 Noroeste 0 -- -- 29
2020-10-15 15:00:00 12.2 21 Norte 49 Noroeste 0 -- -- 30
2020-10-15 14:00:00 12 25 Noroeste 43 Noroeste 0 -- -- 31
2020-10-15 13:00:00 12.3 12 Oeste 30 Sudeste 0 -- -- 33
2020-10-15 12:00:00 11 5 Norte 22 Noroeste 0 -- -- 54
2020-10-15 11:00:00 7 15 Noroeste 26 Noroeste 0 -- -- 66
2020-10-15 10:00:00 4.8 0 Calma 21 Noroeste 0 -- -- 78
2020-10-15 09:00:00 3.4 5 Norte 20 Noroeste 0 -- -- 80
2020-10-15 08:00:00 3.4 3 Noroeste 26 Noroeste 0 -- -- 81
2020-10-15 07:00:00 4.3 12 Noroeste 24 Noroeste 0 -- -- 81
2020-10-15 06:00:00 3.1 3 Oeste 27 Noroeste 0 -- -- 79
2020-10-15 05:00:00 2.7 3 Norte 12 Sudoeste 0 -- -- 80
2020-10-15 04:00:00 3.7 2 Sur 20 Noroeste 0 -- -- 77
2020-10-15 03:00:00 4.2 6 Norte 20 Noroeste 0 -- -- 78
2020-10-15 02:00:00 4.6 5 Sudeste 20 Sudoeste 0 -- -- 69
2020-10-15 01:00:00 6.1 2 Sudoeste 26 Noroeste 0 -- -- 64
2020-10-15 00:00:00 6.6 7 Nordeste 21 Noroeste 0 -- -- 60
2020-10-14 23:00:00 7.1 8 Norte 27 Noroeste 0 -- -- 59
2020-10-14 22:00:00 7.4 13 Noroeste 30 Norte 0 -- -- 57
2020-10-14 21:00:00 8.9 13 Oeste 32 Noroeste 0 -- -- 48
2020-10-14 20:00:00 9.9 14 Noroeste 38 Noroeste 0 -- -- 40
2020-10-14 19:00:00 11 14 Noroeste 34 Noroeste 0 -- -- 42
2020-10-14 18:00:00 12.7 15 Noroeste 35 Noroeste 0 -- -- 40
2020-10-14 17:00:00 13.3 3 Sudoeste 13 Sudoeste 0 -- -- 47
2020-10-14 16:00:00 12.2 9 Sur 36 Noroeste 0.2 -- -- 57
2020-10-14 15:00:00 14 10 Sudoeste 27 Sudoeste 0 -- -- 47
2020-10-14 14:00:00 14.9 11 Sur 26 Sur 0 -- -- 47
2020-10-14 13:00:00 15.1 10 Este 16 Sudeste 0 -- -- 50
2020-10-14 12:00:00 13.3 5 Sudeste 12 Sudeste 0 -- -- 53
2020-10-14 11:00:00 7.5 10 Noroeste 30 Noroeste 0 -- -- 70
2020-10-14 10:00:00 4.6 22 Noroeste 35 Norte 0 -- -- 80
2020-10-14 09:00:00 3.8 23 Noroeste 34 Noroeste 0 -- -- 84
2020-10-14 08:00:00 4.1 21 Noroeste 30 Noroeste 0 -- -- 82
2020-10-14 07:00:00 4.6 19 Noroeste 31 Noroeste 0 -- -- 81
2020-10-14 06:00:00 5.1 22 Noroeste 30 Noroeste 0 -- -- 81
2020-10-14 05:00:00 6 16 Noroeste 29 Noroeste 0 -- -- 78
2020-10-14 04:00:00 7 15 Noroeste 29 Noroeste 0 -- -- 75
2020-10-14 03:00:00 7.8 21 Noroeste 33 Noroeste 0 -- -- 71
2020-10-14 02:00:00 9 19 Noroeste 26 Noroeste 0 -- -- 67
2020-10-14 01:00:00 9.8 15 Noroeste 27 Noroeste 0 -- -- 64
2020-10-14 00:00:00 11 12 Noroeste 20 Noroeste 0 -- -- 60
2020-10-13 23:00:00 11.8 5 Sudoeste 13 Sudoeste 0 -- -- 59
2020-10-13 22:00:00 13.6 8 Noroeste 25 Noroeste 0 -- -- 48
2020-10-13 21:00:00 14.1 9 Noroeste 22 Noroeste 0 -- -- 49
2020-10-13 20:00:00 15 11 Noroeste 20 Noroeste 0 -- -- 46
2020-10-13 19:00:00 16.8 5 Oeste 23 Sur 0 -- -- 43
2020-10-13 18:00:00 18.3 13 Sur 23 Sur 0 -- -- 41
2020-10-13 17:00:00 18 10 Sur 22 Sudoeste 0 -- -- 41
2020-10-13 16:00:00 19.6 8 Sur 19 Sur 0 -- -- 38
2020-10-13 15:00:00 19.1 8 Sudeste 17 Sur 0 -- -- 39
2020-10-13 14:00:00 18.9 7 Sur 14 Sudeste 0 -- -- 40
2020-10-13 13:00:00 16.8 8 Sur 13 Sur 0 -- -- 43
2020-10-13 12:00:00 14.8 8 Sudeste 13 Noroeste 0 -- -- 53
2020-10-13 11:00:00 -- -- -- -- -- -- -- -- --
2020-10-13 10:00:00 -- -- -- -- -- -- -- -- --
2020-10-13 09:00:00 4.9 27 Noroeste 39 Noroeste 0 -- -- 85
2020-10-13 08:00:00 5.3 24 Noroeste 40 Noroeste 0 -- -- 83
2020-10-13 07:00:00 5.5 28 Noroeste 42 Noroeste 0 -- -- 82
2020-10-13 06:00:00 5.8 21 Noroeste 39 Noroeste 0 -- -- 80
2020-10-13 05:00:00 6.6 29 Noroeste 42 Noroeste 0 -- -- 72
2020-10-13 04:00:00 -- -- -- -- -- -- -- -- --
2020-10-13 03:00:00 6.9 24 Noroeste 38 Noroeste 0 -- -- 64
2020-10-13 02:00:00 7.2 17 Noroeste 32 Noroeste 0 -- -- 63
2020-10-13 01:00:00 -- -- -- -- -- -- -- -- --
2020-10-13 00:00:00 9.1 22 Noroeste 39 Noroeste 0 -- -- 54
2020-10-12 23:00:00 9.9 22 Noroeste 37 Noroeste 0 -- -- 46
2020-10-12 22:00:00 10.1 22 Noroeste 37 Noroeste 0 -- -- 47
2020-10-12 21:00:00 10.8 18 Norte 31 Noroeste 0 -- -- 45
2020-10-12 20:00:00 11.9 17 Norte 32 Noroeste 0 -- -- 40
2020-10-12 19:00:00 13 15 Norte 34 Noroeste 0 -- -- 36
2020-10-12 18:00:00 14.5 10 Este 36 Noroeste 0 -- -- 31
2020-10-12 17:00:00 16.1 9 Oeste 29 Sur 0 -- -- 27
2020-10-12 16:00:00 15.8 13 Noroeste 32 Noroeste 0 -- -- 28
2020-10-12 15:00:00 15.6 11 Noroeste 26 Sur 0 -- -- 28
2020-10-12 14:00:00 15.4 8 Noroeste 23 Oeste 0 -- -- 27
2020-10-12 13:00:00 15.1 5 Sudoeste 23 Oeste 0 -- -- 29
2020-10-12 12:00:00 13.7 13 Sudoeste 23 Sur 0 -- -- 40
2020-10-12 11:00:00 12.1 4 Sudeste 9 Este 0 -- -- 52
2020-10-12 10:00:00 5.8 3 Nordeste 8 Noroeste 0 -- -- 76
2020-10-12 09:00:00 4.4 0 Calma 5 Sudeste 0 -- -- 78
2020-10-12 08:00:00 5 0 Calma 10 Sudoeste 0 -- -- 75
2020-10-12 07:00:00 5.6 3 Sudoeste 12 Sur 0 -- -- 71
2020-10-12 06:00:00 6.3 6 Sudoeste 20 Sudoeste 0 -- -- 67
2020-10-12 05:00:00 8.2 5 Sudeste 11 Sudoeste 0 -- -- 59
2020-10-12 04:00:00 -- -- -- -- -- -- -- -- --
2020-10-12 03:00:00 9.3 12 Noroeste 39 Noroeste 0 -- -- 56
2020-10-12 02:00:00 9.3 15 Noroeste 42 Noroeste 0 -- -- 58
2020-10-12 01:00:00 9.6 19 Noroeste 50 Noroeste 0 -- -- 57
2020-10-12 00:00:00 9.9 26 Noroeste 68 Noroeste 0 -- -- 55
2020-10-11 23:00:00 10.3 25 Noroeste 71 Noroeste 0 -- -- 52
2020-10-11 22:00:00 11.2 22 Noroeste 71 Noroeste 0 -- -- 46
2020-10-11 21:00:00 -- -- -- -- -- -- -- -- --
2020-10-11 20:00:00 -- -- -- -- -- -- -- -- --
2020-10-11 19:00:00 13.3 13 Oeste 37 Noroeste 0 -- -- 36
2020-10-11 18:00:00 14.3 15 Oeste 42 Noroeste 0 -- -- 33
2020-10-11 17:00:00 15.4 15 Noroeste 43 Noroeste 0 -- -- 33
2020-10-11 16:00:00 15.6 21 Noroeste 43 Noroeste 0 -- -- 34
2020-10-11 15:00:00 16.3 9 Oeste 30 Noroeste 0 -- -- 33
2020-10-11 14:00:00 15.4 12 Noroeste 27 Noroeste 0 -- -- 34
2020-10-11 13:00:00 15 8 Sudoeste 30 Noroeste 0 -- -- 33
2020-10-11 12:00:00 13.8 13 Noroeste 35 Noroeste 0 -- -- 35
2020-10-11 11:00:00 13 18 Noroeste 48 Noroeste 0 -- -- 38
2020-10-11 10:00:00 11.8 8 Norte 46 Noroeste 0 -- -- 40
2020-10-11 09:00:00 10.1 16 Noroeste 48 Noroeste 0 -- -- 41
2020-10-11 08:00:00 10.1 12 Norte 44 Noroeste 0 -- -- 37
2020-10-11 07:00:00 9.7 10 Norte 28 Noroeste 0 -- -- 44
2020-10-11 06:00:00 10.5 21 Noroeste 34 Noroeste 0 -- -- 47
2020-10-11 05:00:00 11 17 Norte 37 Noroeste 0 -- -- 48
2020-10-11 04:00:00 10.9 14 Noroeste 22 Noroeste 0 -- -- 50
2020-10-11 03:00:00 10.3 4 Nordeste 16 Noroeste 0 -- -- 59
2020-10-11 02:00:00 11.8 5 Norte 20 Norte 0 -- -- 60
2020-10-11 01:00:00 13.3 10 Nordeste 36 Noroeste 0 -- -- 41
2020-10-11 00:00:00 13.4 12 Noroeste 45 Noroeste 0 -- -- 41
2020-10-10 23:00:00 13.6 20 Noroeste 41 Noroeste 0 -- -- 43
2020-10-10 22:00:00 13.5 10 Norte 34 Noroeste 0 -- -- 50
2020-10-10 21:00:00 13.5 12 Norte 23 Noroeste 0 -- -- 62
2020-10-10 20:00:00 13.4 5 Norte 23 Noroeste 0 -- -- 77
2020-10-10 19:00:00 14.3 0 Calma 12 Noroeste 1 -- -- 79
2020-10-10 18:00:00 16.8 4 Oeste 22 Sur 1.2 -- -- 73
2020-10-10 17:00:00 19.1 14 Sur 23 Sur 0 -- -- 62
2020-10-10 16:00:00 19.1 15 Sur 27 Sur 0 -- -- 62
2020-10-10 15:00:00 19.9 6 Sur 23 Sudoeste 0 -- -- 58
2020-10-10 14:00:00 21.3 12 Sur 22 Sur 0 -- -- 47
2020-10-10 13:00:00 21.2 9 Sur 18 Sur 0 -- -- 55
2020-10-10 12:00:00 19.2 7 Sur 13 Sur 0 -- -- 70
2020-10-10 11:00:00 15.1 10 Noroeste 28 Noroeste 0 -- -- 79
2020-10-10 10:00:00 13.2 22 Noroeste 31 Noroeste 0 -- -- 85
2020-10-10 09:00:00 12.4 18 Noroeste 31 Noroeste 0 -- -- 88
2020-10-10 08:00:00 12.2 18 Noroeste 33 Noroeste 0 -- -- 88
2020-10-10 07:00:00 12.1 19 Noroeste 34 Noroeste 0 -- -- 89
2020-10-10 06:00:00 12.3 22 Noroeste 32 Noroeste 0 -- -- 90
2020-10-10 05:00:00 12.6 19 Noroeste 31 Noroeste 0 -- -- 89
2020-10-10 04:00:00 12.9 22 Noroeste 35 Noroeste 0 -- -- 88
2020-10-10 03:00:00 13.2 21 Noroeste 31 Noroeste 0 -- -- 87
2020-10-10 02:00:00 13.7 17 Noroeste 31 Noroeste 0 -- -- 85
2020-10-10 01:00:00 14.3 19 Noroeste 30 Noroeste 0 -- -- 83
2020-10-10 00:00:00 14.7 15 Noroeste 25 Noroeste 0 -- -- 83
2020-10-09 23:00:00 15.4 16 Noroeste 26 Noroeste 0 -- -- 81
2020-10-09 22:00:00 16.4 13 Noroeste 19 Noroeste 0 -- -- 76
2020-10-09 21:00:00 18.3 0 Calma 6 Noroeste 0 -- -- 66
2020-10-09 20:00:00 19.7 0 Calma 16 Sur 0 -- -- 61
2020-10-09 19:00:00 21.3 6 Sudeste 13 Sur 0 -- -- 56
2020-10-09 18:00:00 23.2 10 Sur 15 Sudoeste 0 -- -- 46
2020-10-09 17:00:00 24.1 8 Sur 22 Oeste 0 -- -- 39
2020-10-09 16:00:00 24.5 4 Sur 21 Sur 0 -- -- 45
2020-10-09 15:00:00 23.5 8 Sur 21 Este 0 -- -- 50
2020-10-09 14:00:00 23.2 5 Sudeste 11 Sudeste 0 -- -- 53
2020-10-09 13:00:00 20.9 4 Sudeste 14 Noroeste 0 -- -- 58
2020-10-09 12:00:00 17.3 12 Noroeste 28 Noroeste 0 -- -- 66
2020-10-09 11:00:00 13.9 18 Noroeste 37 Noroeste 0 -- -- 80
2020-10-09 10:00:00 12.6 28 Noroeste 42 Noroeste 0 -- -- 84
2020-10-09 09:00:00 11.7 29 Noroeste 44 Noroeste 0 -- -- 86
2020-10-09 08:00:00 11.4 31 Noroeste 41 Noroeste 0 -- -- 88
2020-10-09 07:00:00 11.6 27 Noroeste 40 Noroeste 0 -- -- 88
2020-10-09 06:00:00 11.8 24 Noroeste 38 Noroeste 0 -- -- 88
2020-10-09 05:00:00 12.2 22 Noroeste 37 Noroeste 0 -- -- 87
2020-10-09 04:00:00 12.3 28 Noroeste 35 Noroeste 0 -- -- 87
2020-10-09 03:00:00 12.8 24 Noroeste 33 Noroeste 0 -- -- 87
2020-10-09 02:00:00 13.2 22 Noroeste 34 Noroeste 0 -- -- 86
2020-10-09 01:00:00 13.9 18 Noroeste 33 Noroeste 0 -- -- 84
2020-10-09 00:00:00 14.5 19 Noroeste 28 Noroeste 0 -- -- 83
2020-10-08 23:00:00 15.4 17 Noroeste 27 Noroeste 0 -- -- 79
2020-10-08 22:00:00 16.5 10 Noroeste 27 Noroeste 0 -- -- 75
2020-10-08 21:00:00 17.5 13 Noroeste 18 Noroeste 0 -- -- 70
2020-10-08 20:00:00 18.9 9 Noroeste 14 Noroeste 0 -- -- 65
2020-10-08 19:00:00 20.9 10 Sur 20 Sudoeste 0 -- -- 56
2020-10-08 18:00:00 21.8 12 Sur 21 Sur 0 -- -- 54
2020-10-08 17:00:00 23.1 12 Sur 23 Sudoeste 0 -- -- 51
2020-10-08 16:00:00 23.1 13 Sur 21 Sudoeste 0 -- -- 51
2020-10-08 15:00:00 22.9 10 Sur 19 Sur 0 -- -- 50
2020-10-08 14:00:00 22.7 8 Sur 13 Sur 0 -- -- 52
2020-10-08 13:00:00 21.1 6 Sudeste 13 Sudeste 0 -- -- 56
2020-10-08 12:00:00 18.2 4 Este 20 Noroeste 0 -- -- 63
2020-10-08 11:00:00 13.5 14 Noroeste 28 Noroeste 0 -- -- 75
2020-10-08 10:00:00 11.1 19 Noroeste 39 Noroeste 0 -- -- 82
2020-10-08 09:00:00 9.9 24 Noroeste 40 Noroeste 0 -- -- 87
2020-10-08 08:00:00 10.1 25 Noroeste 38 Noroeste 0 -- -- 87
2020-10-08 07:00:00 10.6 28 Noroeste 37 Noroeste 0 -- -- 85
2020-10-08 06:00:00 10.9 32 Noroeste 42 Noroeste 0 -- -- 85
2020-10-08 05:00:00 11.3 28 Noroeste 39 Noroeste 0 -- -- 85
2020-10-08 04:00:00 11.8 29 Noroeste 39 Noroeste 0 -- -- 83
2020-10-08 03:00:00 12.3 27 Noroeste 37 Noroeste 0 -- -- 84
2020-10-08 02:00:00 13.1 22 Noroeste 39 Noroeste 0 -- -- 81
2020-10-08 01:00:00 14.3 28 Noroeste 40 Noroeste 0 -- -- 76
2020-10-08 00:00:00 14.7 30 Noroeste 40 Noroeste 0 -- -- 77
2020-10-07 23:00:00 15.7 23 Noroeste 34 Noroeste 0 -- -- 74
2020-10-07 22:00:00 16.9 21 Noroeste 31 Noroeste 0 -- -- 70
2020-10-07 21:00:00 17.9 18 Noroeste 27 Noroeste 0 -- -- 69
2020-10-07 20:00:00 19.5 16 Noroeste 23 Noroeste 0 -- -- 64
2020-10-07 19:00:00 21.6 8 Noroeste 12 Noroeste 0 -- -- 54
2020-10-07 18:00:00 23.2 0 Calma 8 Sur 0 -- -- 49
2020-10-07 17:00:00 23.1 5 Este 15 Sur 0 -- -- 51
2020-10-07 16:00:00 23.5 4 Sur 15 Este 0 -- -- 49
2020-10-07 15:00:00 23.1 7 Sudoeste 18 Sur 0 -- -- 50
2020-10-07 14:00:00 21.7 9 Sur 15 Sur 0 -- -- 52
2020-10-07 13:00:00 21.5 6 Sur 13 Sudoeste 0 -- -- 51
2020-10-07 12:00:00 19 5 Sudeste 15 Noroeste 0 -- -- 63
2020-10-07 11:00:00 14.2 10 Norte 26 Noroeste 0 -- -- 76
2020-10-07 10:00:00 11.2 18 Noroeste 30 Noroeste 0 -- -- 89
2020-10-07 09:00:00 9.9 18 Noroeste 35 Noroeste 0 -- -- 92
2020-10-07 08:00:00 10.1 22 Noroeste 35 Noroeste 0 -- -- 92
2020-10-07 07:00:00 10.5 20 Noroeste 37 Noroeste 0 -- -- 91
2020-10-07 06:00:00 10.7 23 Noroeste 35 Noroeste 0 -- -- 90
2020-10-07 05:00:00 11.1 21 Noroeste 34 Noroeste 0 -- -- 89
2020-10-07 04:00:00 11.4 22 Noroeste 35 Noroeste 0 -- -- 89
2020-10-07 03:00:00 12.1 16 Noroeste 32 Noroeste 0 -- -- 87
2020-10-07 02:00:00 12.5 19 Noroeste 32 Noroeste 0 -- -- 87
2020-10-07 01:00:00 13.2 16 Noroeste 28 Noroeste 0 -- -- 85
2020-10-07 00:00:00 13.8 15 Noroeste 26 Noroeste 0 -- -- 84
2020-10-06 23:00:00 14.5 18 Noroeste 25 Noroeste 0 -- -- 81
2020-10-06 22:00:00 15.3 15 Noroeste 23 Noroeste 0 -- -- 79
2020-10-06 21:00:00 16.7 6 Noroeste 14 Noroeste 0 -- -- 72
2020-10-06 20:00:00 18 6 Este 15 Sur 0 -- -- 66
2020-10-06 19:00:00 19.8 8 Sur 14 Sur 0 -- -- 61
2020-10-06 18:00:00 21.4 10 Sur 20 Sudeste 0 -- -- 53
2020-10-06 17:00:00 21.7 10 Sur 21 Sur 0 -- -- 53
2020-10-06 16:00:00 22 11 Sur 23 Sur 0 -- -- 50
2020-10-06 15:00:00 21.6 10 Sur 19 Sur 0 -- -- 48
2020-10-06 14:00:00 20.6 5 Sudeste 13 Sur 0 -- -- 47
2020-10-06 13:00:00 18.9 6 Sudeste 15 Noroeste 0 -- -- 45
2020-10-06 12:00:00 13.7 7 Noroeste 23 Noroeste 0 -- -- 58
2020-10-06 11:00:00 10.6 13 Noroeste 37 Noroeste 0 -- -- 71
2020-10-06 10:00:00 8 18 Noroeste 40 Noroeste 0 -- -- 80
2020-10-06 09:00:00 6.4 32 Noroeste 40 Noroeste 0 -- -- 85
2020-10-06 08:00:00 6.3 25 Noroeste 40 Noroeste 0 -- -- 87
2020-10-06 07:00:00 6.4 26 Noroeste 39 Noroeste 0 -- -- 87
2020-10-06 06:00:00 6.6 24 Noroeste 37 Noroeste 0 -- -- 87
2020-10-06 05:00:00 6.9 24 Noroeste 35 Noroeste 0 -- -- 86
2020-10-06 04:00:00 7.2 24 Noroeste 36 Noroeste 0 -- -- 86
2020-10-06 03:00:00 7.3 24 Noroeste 34 Noroeste 0 -- -- 85
2020-10-06 02:00:00 7.8 26 Noroeste 40 Noroeste 0 -- -- 82
2020-10-06 01:00:00 8.3 26 Noroeste 37 Noroeste 0 -- -- 82
2020-10-06 00:00:00 8.9 26 Noroeste 33 Noroeste 0 -- -- 80
2020-10-05 23:00:00 9.8 26 Noroeste 34 Noroeste 0 -- -- 77
2020-10-05 22:00:00 10.9 19 Noroeste 26 Noroeste 0 -- -- 74
2020-10-05 21:00:00 12.2 9 Oeste 14 Noroeste 0 -- -- 66
2020-10-05 20:00:00 14.1 4 Sur 13 Sur 0 -- -- 53
2020-10-05 19:00:00 15.4 6 Sudeste 18 Sur 0 -- -- 50
2020-10-05 18:00:00 17.2 11 Sur 24 Sudeste 0 -- -- 44
2020-10-05 17:00:00 17.5 10 Sur 21 Sudoeste 0 -- -- 44
2020-10-05 16:00:00 18.2 8 Sudeste 17 Sudoeste 0 -- -- 45
2020-10-05 15:00:00 17 9 Sur 18 Este 0 -- -- 48
2020-10-05 14:00:00 16.4 8 Sur 19 Sudoeste 0 -- -- 48
2020-10-05 13:00:00 15.5 6 Sudeste 13 Sudeste 0 -- -- 55
2020-10-05 12:00:00 13.2 5 Sur 12 Sur 0 -- -- 57
2020-10-05 11:00:00 7.8 8 Noroeste 32 Noroeste 0 -- -- 76
2020-10-05 10:00:00 5.7 17 Norte 36 Noroeste 0 -- -- 85
2020-10-05 09:00:00 4.2 22 Noroeste 36 Noroeste 0 -- -- 89
2020-10-05 08:00:00 4.4 23 Noroeste 33 Noroeste 0 -- -- 88
2020-10-05 07:00:00 4.7 19 Norte 29 Noroeste 0 -- -- 88
2020-10-05 06:00:00 4.9 19 Noroeste 35 Noroeste 0 -- -- 87
2020-10-05 05:00:00 5.3 19 Noroeste 34 Noroeste 0 -- -- 86
2020-10-05 04:00:00 5.6 22 Noroeste 33 Noroeste 0 -- -- 87
2020-10-05 03:00:00 5.9 25 Noroeste 32 Noroeste 0 -- -- 86
2020-10-05 02:00:00 6.4 20 Noroeste 26 Noroeste 0 -- -- 85
2020-10-05 01:00:00 7 19 Noroeste 30 Noroeste 0 -- -- 84
2020-10-05 00:00:00 7.7 12 Noroeste 22 Noroeste 0 -- -- 82
2020-10-04 23:00:00 8.5 10 Noroeste 17 Noroeste 0 -- -- 78
2020-10-04 22:00:00 9.3 4 Sudoeste 12 Este 0 -- -- 70
2020-10-04 21:00:00 9.8 5 Este 16 Sudoeste 0 -- -- 70
2020-10-04 20:00:00 11.3 9 Sur 18 Sudeste 0 -- -- 66
2020-10-04 19:00:00 11.6 9 Sudeste 19 Sur 0 -- -- 70
2020-10-04 18:00:00 12.2 9 Sudeste 23 Sudeste 0 -- -- 69
2020-10-04 17:00:00 13.6 10 Sudeste 26 Sur 0 -- -- 63
2020-10-04 16:00:00 14.2 10 Sudeste 26 Sur 0 -- -- 57
2020-10-04 15:00:00 13.7 9 Sur 19 Sur 0 -- -- 59
2020-10-04 14:00:00 11.1 6 Sudeste 20 Sur 0 -- -- 74
2020-10-04 13:00:00 11.8 11 Sur 21 Sur 0 -- -- 64
2020-10-04 12:00:00 11.7 5 Este 13 Sudoeste 0 -- -- 78
2020-10-04 11:00:00 10.7 9 Sudoeste 10 Sur 0 -- -- 69
2020-10-04 10:00:00 10.6 4 Este 19 Noroeste 0 -- -- 82
2020-10-04 09:00:00 7.4 8 Noroeste 21 Noroeste 0 -- -- 88
2020-10-04 08:00:00 7.5 7 Noroeste 16 Noroeste 0 -- -- 87
2020-10-04 07:00:00 7.4 13 Noroeste 21 Noroeste 0 -- -- 86
2020-10-04 06:00:00 7.4 8 Noroeste 29 Noroeste 0 -- -- 85
2020-10-04 05:00:00 7.3 17 Noroeste 27 Noroeste 0 -- -- 85
2020-10-04 04:00:00 7.2 15 Noroeste 25 Noroeste 0 -- -- 86
2020-10-04 03:00:00 7.7 15 Noroeste 25 Noroeste 0 -- -- 85
2020-10-04 02:00:00 8.1 15 Noroeste 21 Noroeste 0 -- -- 84
2020-10-04 01:00:00 8.6 0 Calma 13 Noroeste 0 -- -- 82
2020-10-04 00:00:00 9 5 Noroeste 22 Noroeste 0 -- -- 81
2020-10-03 23:00:00 9.7 9 Noroeste 18 Noroeste 0 -- -- 75
2020-10-03 22:00:00 9.8 7 Noroeste 16 Noroeste 0 -- -- 69
2020-10-03 21:00:00 10.1 7 Sudoeste 10 Sudoeste 0 -- -- 65
2020-10-03 20:00:00 10.1 4 Sudeste 13 Oeste 0 -- -- 65
2020-10-03 19:00:00 10.8 4 Sur 18 Sur 0 -- -- 62
2020-10-03 18:00:00 10.7 11 Sur 24 Sur 0 -- -- 63
2020-10-03 17:00:00 10.9 7 Sudeste 31 Sudoeste 0 -- -- 62
2020-10-03 16:00:00 11.2 12 Sur 30 Oeste 0 -- -- 58
2020-10-03 15:00:00 9.8 18 Sudoeste 33 Sudoeste 0 -- -- 64
2020-10-03 14:00:00 9.9 9 Sur 26 Sudoeste 0 -- -- 65
2020-10-03 13:00:00 9.7 8 Sur 22 Sudoeste 0 -- -- 65
2020-10-03 12:00:00 9.5 11 Sur 22 Sudoeste 0 -- -- 70
2020-10-03 11:00:00 8.6 9 Sur 18 Sudoeste 0 -- -- 74
2020-10-03 10:00:00 7.5 4 Este 8 Sudoeste 0 -- -- 85
2020-10-03 09:00:00 6.5 0 Calma 5 Sudoeste 0 -- -- 85
2020-10-03 08:00:00 6.1 3 Sudeste 6 Este 0 -- -- 84
2020-10-03 07:00:00 5.9 2 Sudeste 13 Sudoeste 0 -- -- 82
2020-10-03 06:00:00 6.2 5 Sudoeste 9 Sur 0 -- -- 82
2020-10-03 05:00:00 5.8 4 Sudeste 12 Sudoeste 0 -- -- 83
2020-10-03 04:00:00 5.8 3 Sudoeste 13 Sur 0 -- -- 82
2020-10-03 03:00:00 6.4 5 Sur 14 Sur 0.2 -- -- 80
2020-10-03 02:00:00 6 3 Sudeste 12 Sur 0 -- -- 85
2020-10-03 01:00:00 5.7 0 Calma 13 Sur 0 -- -- 87
2020-10-03 00:00:00 6.1 0 Calma 12 Sudoeste 0 -- -- 86
2020-10-02 23:00:00 6.8 2 Sur 24 Noroeste 0 -- -- 86
2020-10-02 22:00:00 7.7 2 Norte 15 Noroeste 0 -- -- 83
2020-10-02 21:00:00 8.6 9 Noroeste 17 Noroeste 0 -- -- 80
2020-10-02 20:00:00 9.1 5 Noroeste 28 Noroeste 0 -- -- 74
2020-10-02 19:00:00 9.8 0 Calma 8 Nordeste 0 -- -- 80
2020-10-02 18:00:00 9.6 6 Nordeste 18 Sur 0 -- -- 78
2020-10-02 17:00:00 9.3 5 Sur 27 Sur 0 -- -- 81
2020-10-02 16:00:00 9.3 12 Sudeste 21 Oeste 0 -- -- 82
2020-10-02 15:00:00 9.5 6 Sur 30 Sur 0.8 -- -- 87
2020-10-02 14:00:00 10.8 7 Sudeste 35 Sur 4.8 -- -- 90
2020-10-02 13:00:00 11.8 17 Sur 30 Sur 1.2 -- -- 90
2020-10-02 12:00:00 11.9 10 Sur 21 Sudeste 1.4 -- -- 91
2020-10-02 11:00:00 11.6 7 Sur 23 Sur 6.4 -- -- 92
2020-10-02 10:00:00 11.5 10 Sur 28 Sur 3.2 -- -- 90
2020-10-02 09:00:00 11.9 10 Sur 20 Sur 1.6 -- -- 88
2020-10-02 08:00:00 11.9 11 Sur 21 Sur 2.2 -- -- 89
2020-10-02 07:00:00 11.5 6 Sur 16 Sur 2.2 -- -- 91
2020-10-02 06:00:00 11.6 4 Sur 19 Noroeste 0.8 -- -- 88
2020-10-02 05:00:00 12 9 Noroeste 24 Noroeste 0.2 -- -- 82
2020-10-02 04:00:00 12.3 19 Noroeste 24 Noroeste 0 -- -- 80
2020-10-02 03:00:00 12.9 13 Noroeste 23 Noroeste 0 -- -- 71
2020-10-02 02:00:00 13.2 15 Noroeste 25 Noroeste 0 -- -- 71
2020-10-02 01:00:00 13.3 14 Noroeste 22 Noroeste 0 -- -- 70
2020-10-02 00:00:00 13.4 15 Noroeste 20 Noroeste 0 -- -- 70
2020-10-01 23:00:00 14.1 4 Oeste 14 Noroeste 0 -- -- 65
2020-10-01 22:00:00 14.7 12 Noroeste 19 Noroeste 0 -- -- 62
2020-10-01 21:00:00 16.5 10 Noroeste 15 Oeste 0 -- -- 55
2020-10-01 20:00:00 18.3 5 Oeste 24 Sudoeste 0 -- -- 48
2020-10-01 19:00:00 19.1 14 Sur 27 Sur 0 -- -- 48
2020-10-01 18:00:00 20 11 Sur 31 Sur 0 -- -- 45
2020-10-01 17:00:00 21.2 14 Sur 28 Sur 0 -- -- 44
2020-10-01 16:00:00 21.9 18 Sur 31 Sur 0 -- -- 43
2020-10-01 15:00:00 21.7 15 Sur 28 Sur 0 -- -- 45
2020-10-01 14:00:00 22.7 21 Sur 32 Sur 0 -- -- 39
2020-10-01 13:00:00 22.1 6 Sudeste 14 Sur 0 -- -- 43
2020-10-01 12:00:00 18.6 4 Sudeste 26 Noroeste 0 -- -- 52
2020-10-01 11:00:00 13.3 14 Noroeste 34 Noroeste 0 -- -- 68
2020-10-01 10:00:00 10.6 19 Noroeste 40 Noroeste 0 -- -- 78
2020-10-01 09:00:00 9.3 28 Noroeste 45 Noroeste 0 -- -- 83
2020-10-01 08:00:00 9.2 29 Noroeste 48 Noroeste 0 -- -- 83
2020-10-01 07:00:00 9.4 33 Noroeste 42 Noroeste 0 -- -- 82
2020-10-01 06:00:00 9.5 34 Noroeste 47 Noroeste 0 -- -- 84
2020-10-01 05:00:00 9.8 33 Noroeste 48 Noroeste 0 -- -- 83
2020-10-01 04:00:00 10.4 34 Noroeste 41 Noroeste 0 -- -- 81
2020-10-01 03:00:00 10.9 28 Noroeste 40 Noroeste 0 -- -- 79
2020-10-01 02:00:00 11.5 26 Noroeste 41 Noroeste 0 -- -- 76
2020-10-01 01:00:00 12.3 32 Noroeste 39 Noroeste 0 -- -- 73
2020-10-01 00:00:00 13.3 27 Noroeste 39 Noroeste 0 -- -- 70
2020-09-30 23:00:00 14.4 22 Noroeste 33 Noroeste 0 -- -- 67
2020-09-30 22:00:00 15.6 19 Noroeste 25 Noroeste 0 -- -- 63
2020-09-30 21:00:00 17.4 10 Noroeste 15 Noroeste 0 -- -- 55
2020-09-30 20:00:00 19.7 4 Sudeste 17 Sur 0 -- -- 45
2020-09-30 19:00:00 21.7 0 Calma 18 Sudoeste 0 -- -- 40
2020-09-30 18:00:00 24 6 Oeste 18 Sur 0 -- -- 34
2020-09-30 17:00:00 24.7 8 Sur 22 Sur 0 -- -- 31
2020-09-30 16:00:00 24.9 10 Sur 22 Sudoeste 0 -- -- 29
2020-09-30 15:00:00 24.9 6 Sur 17 Este 0 -- -- 29
2020-09-30 14:00:00 23.8 7 Sudeste 15 Sur 0 -- -- 36
2020-09-30 13:00:00 22.6 7 Sudeste 11 Sudeste 0 -- -- 41
2020-09-30 12:00:00 16.1 8 Noroeste 30 Noroeste 0 -- -- 56
2020-09-30 11:00:00 12.8 18 Noroeste 37 Noroeste 0 -- -- 68
2020-09-30 10:00:00 9.9 28 Noroeste 43 Noroeste 0 -- -- 79
2020-09-30 09:00:00 8.3 33 Noroeste 50 Noroeste 0 -- -- 85
2020-09-30 08:00:00 8.4 32 Noroeste 46 Noroeste 0 -- -- 85
2020-09-30 07:00:00 8.4 30 Noroeste 42 Noroeste 0 -- -- 85
2020-09-30 06:00:00 8.7 30 Noroeste 42 Noroeste 0 -- -- 84
2020-09-30 05:00:00 9.2 27 Noroeste 44 Noroeste 0 -- -- 84
2020-09-30 04:00:00 9.7 27 Noroeste 40 Noroeste 0 -- -- 82
2020-09-30 03:00:00 10.3 30 Noroeste 39 Noroeste 0 -- -- 79
2020-09-30 02:00:00 10.8 28 Noroeste 40 Noroeste 0 -- -- 77
2020-09-30 01:00:00 11.6 28 Noroeste 37 Noroeste 0 -- -- 74
2020-09-30 00:00:00 12.6 26 Noroeste 36 Noroeste 0 -- -- 71